Sign-in with your pilot id or email, or register

ICAO: FKKD Name / Country: Douala Obs. / Cameroon
Latitude: 4.00608 Longitude: 9.71948
Total Arrivals:
Strict Standards: Non-static method AirportData::getarrflights() should not be called statically, assuming $this from incompatible context in /var/www/customers/vh-7192/web/home/phpvms/core/templates/airport_info.tpl on line 18
1
Total Departures:
Strict Standards: Non-static method AirportData::getdeptflights() should not be called statically, assuming $this from incompatible context in /var/www/customers/vh-7192/web/home/phpvms/core/templates/airport_info.tpl on line 21
1
Latest Arrival: MTA5PM (FNLU-FKKD) Tibor Berces Latest Departure: MTA5PM (FKKD-DIAP) Tibor Berces
Metar: FKKD 271000Z VRB01KT 9999 BKN014 FEW017CB 29/24 Q1012 BECMG BKN016 FEW020CB
More info

Charts for FKKD


NOTAM


Warning: file_get_contents(http://api.vateud.net/notams/FKKD.json): failed to open stream: Redirection limit reached, aborting in /var/www/customers/vh-7192/web/home/phpvms/core/common/NOTAMSData.class.php on line 18

Warning: Invalid argument supplied for foreach() in /var/www/customers/vh-7192/web/home/phpvms/core/common/NOTAMSData.class.php on line 22

Douala Obs.